Time;durP1;ratioP1;P1;durP2;ratioP2;P2;SDS_P1;SDS_P2;PMS_P1;PMS_P2;Temp;Humidity;BMP_temperature;BMP_pressure;BME280_temperature;BME280_humidity;BME280_pressure;Samples;Min_cycle;Max_cycle;Signal;HPM_P1;HPM_P2
2021/10/02 00:33:36;;;;;;;6.77;1.87;;;12.30;99.90;;;;;;5043963;28;20448;-84
2021/10/02 00:36:01;;;;;;;3.90;1.90;;;12.40;99.90;;;;;;5039306;28;20477;-84
2021/10/02 00:41:34;;;;;;;3.70;2.43;;;12.40;99.90;;;;;;5044229;28;20444;-85
2021/10/02 00:46:47;;;;;;;2.27;2.07;;;12.40;99.90;;;;;;5041729;28;20838;-85
2021/10/02 00:49:13;;;;;;;2.90;1.93;;;12.40;99.90;;;;;;5043280;28;20475;-85
2021/10/02 00:51:40;;;;;;;2.97;1.93;;;12.40;99.90;;;;;;5040716;28;20512;-85
2021/10/02 00:54:06;;;;;;;2.47;2.07;;;12.40;99.90;;;;;;5043053;28;20453;-85
2021/10/02 00:56:31;;;;;;;5.63;2.50;;;12.40;99.90;;;;;;5043583;28;20452;-85
2021/10/02 00:58:57;;;;;;;3.43;1.97;;;12.40;99.90;;;;;;5044209;28;21035;-84
2021/10/02 01:01:30;;;;;;;1.93;1.50;;;12.40;99.90;;;;;;5042299;28;20194;-85
2021/10/02 01:04:07;;;;;;;1.80;1.70;;;12.40;99.90;;;;;;5042701;28;20182;-84
2021/10/02 01:06:43;;;;;;;2.20;1.70;;;12.40;99.90;;;;;;5042160;28;20472;-84
2021/10/02 01:10:05;;;;;;;1.60;1.30;;;12.40;99.90;;;;;;5041940;28;20509;-84
2021/10/02 01:12:49;;;;;;;1.83;1.60;;;12.40;99.90;;;;;;5010425;28;20460;-84
2021/10/02 01:15:44;;;;;;;2.60;1.57;;;12.40;99.90;;;;;;5045691;28;20433;-83
2021/10/02 01:18:33;;;;;;;1.87;1.50;;;12.40;99.90;;;;;;5044692;28;20449;-83
2021/10/02 01:21:39;;;;;;;3.03;2.00;;;12.40;99.90;;;;;;5047722;28;20468;-83
2021/10/02 01:24:33;;;;;;;1.90;1.60;;;12.50;99.90;;;;;;5043089;28;20437;-83
2021/10/02 01:27:11;;;;;;;3.53;2.10;;;12.50;99.90;;;;;;5042821;28;20563;-83
2021/10/02 01:29:40;;;;;;;2.73;2.03;;;12.40;99.90;;;;;;5040480;28;20455;-83
2021/10/02 01:32:16;;;;;;;2.00;1.70;;;12.50;99.90;;;;;;5043901;28;20445;-83
2021/10/02 01:37:56;;;;;;;2.10;1.90;;;12.50;99.90;;;;;;5043922;28;20464;-83
2021/10/02 01:48:43;;;;;;;3.83;2.10;;;12.50;99.90;;;;;;5045889;28;20453;-83
2021/10/02 01:51:11;;;;;;;3.53;2.03;;;12.50;99.90;;;;;;5041428;28;20476;-83
2021/10/02 01:53:39;;;;;;;1.90;1.70;;;12.50;99.90;;;;;;5043352;28;20541;-83
2021/10/02 01:56:07;;;;;;;3.37;2.33;;;12.50;99.90;;;;;;5045189;28;20495;-83
2021/10/02 01:58:35;;;;;;;3.60;2.03;;;12.50;99.90;;;;;;5044746;28;20518;-83
2021/10/02 02:01:03;;;;;;;2.17;1.93;;;12.50;99.90;;;;;;5038264;28;20452;-83
2021/10/02 02:03:31;;;;;;;4.73;2.30;;;12.50;99.90;;;;;;5040636;28;20542;-83
2021/10/02 02:05:58;;;;;;;2.30;2.10;;;12.50;99.90;;;;;;5041849;28;20452;-84
2021/10/02 02:08:25;;;;;;;3.17;2.57;;;12.50;99.90;;;;;;5041175;28;20492;-83
2021/10/02 02:10:52;;;;;;;2.50;2.30;;;12.50;99.90;;;;;;5042877;28;20537;-84
2021/10/02 02:13:19;;;;;;;2.90;2.63;;;12.50;99.90;;;;;;5052823;28;20539;-83
2021/10/02 02:15:46;;;;;;;3.50;3.20;;;12.50;99.90;;;;;;5045035;28;20452;-83
2021/10/02 02:18:15;;;;;;;3.57;2.97;;;12.40;99.90;;;;;;5043423;28;20464;-83
2021/10/02 02:20:47;;;;;;;2.97;2.67;;;12.50;99.90;;;;;;5044031;28;20810;-83
2021/10/02 02:23:13;;;;;;;3.13;2.83;;;12.50;99.90;;;;;;5045060;28;20449;-82
2021/10/02 02:25:40;;;;;;;3.43;3.13;;;12.50;99.90;;;;;;5046886;28;20572;-82
2021/10/02 02:28:08;;;;;;;6.17;3.47;;;12.50;99.90;;;;;;5051035;28;20515;-82
2021/10/02 02:30:34;;;;;;;3.90;2.97;;;12.50;99.90;;;;;;5051030;28;20497;-83
2021/10/02 02:33:01;;;;;;;4.50;3.33;;;12.50;99.90;;;;;;5043288;28;20448;-83
2021/10/02 02:35:27;;;;;;;3.90;3.60;;;12.50;99.90;;;;;;5042299;28;20501;-83
2021/10/02 02:37:54;;;;;;;5.93;3.37;;;12.50;99.90;;;;;;5044777;28;20549;-83
2021/10/02 02:40:21;;;;;;;3.77;2.93;;;12.60;99.90;;;;;;5040482;28;21045;-83
2021/10/02 02:42:47;;;;;;;4.10;3.60;;;12.50;99.90;;;;;;5044317;28;20468;-83
2021/10/02 02:45:15;;;;;;;4.20;3.67;;;12.50;99.90;;;;;;5040749;28;21016;-84
2021/10/02 02:47:51;;;;;;;5.07;3.90;;;12.50;99.90;;;;;;5041065;28;20470;-83
2021/10/02 02:50:41;;;;;;;5.17;4.17;;;12.50;99.90;;;;;;5041303;28;20809;-84
2021/10/02 02:53:31;;;;;;;5.00;4.50;;;12.50;99.90;;;;;;5049302;28;20448;-83
2021/10/02 02:56:12;;;;;;;5.30;4.57;;;12.50;99.90;;;;;;5047885;28;20488;-83
2021/10/02 02:58:40;;;;;;;5.13;4.63;;;12.60;99.90;;;;;;5046102;28;21108;-83
2021/10/02 03:01:06;;;;;;;4.97;4.47;;;12.60;99.90;;;;;;5046466;28;20944;-84
2021/10/02 03:03:37;;;;;;;5.63;5.03;;;12.50;99.90;;;;;;5049751;28;20814;-83
2021/10/02 03:06:10;;;;;;;10.10;5.43;;;12.60;99.90;;;;;;5048514;28;20825;-83
2021/10/02 03:08:42;;;;;;;6.80;5.17;;;12.60;99.90;;;;;;5049081;28;20467;-83
2021/10/02 03:11:09;;;;;;;5.77;5.27;;;12.60;99.90;;;;;;5043378;28;20480;-83
2021/10/02 03:13:38;;;;;;;5.77;5.27;;;12.60;99.90;;;;;;5049731;28;20508;-83
2021/10/02 03:16:10;;;;;;;5.43;4.93;;;12.70;99.90;;;;;;5050178;28;20440;-83
2021/10/02 03:18:40;;;;;;;5.93;5.43;;;12.60;99.90;;;;;;5049551;28;20458;-83
2021/10/02 03:21:06;;;;;;;5.63;5.13;;;12.60;99.90;;;;;;5048337;28;20784;-83
2021/10/02 03:23:33;;;;;;;5.33;4.83;;;12.70;99.90;;;;;;5050510;28;20452;-83
2021/10/02 03:26:01;;;;;;;5.70;5.20;;;12.70;99.90;;;;;;5047603;28;20467;-82
2021/10/02 03:28:29;;;;;;;5.93;5.33;;;12.70;99.90;;;;;;5051839;28;20490;-82
2021/10/02 03:30:56;;;;;;;5.80;5.10;;;12.70;99.90;;;;;;5053235;28;20453;-82
2021/10/02 03:33:23;;;;;;;6.20;5.60;;;12.70;99.90;;;;;;5054571;28;20452;-83
2021/10/02 03:35:49;;;;;;;6.10;5.50;;;12.70;99.90;;;;;;5052558;28;20449;-82
2021/10/02 03:38:15;;;;;;;6.83;5.00;;;12.70;99.90;;;;;;5049293;28;20456;-82
2021/10/02 03:40:41;;;;;;;5.53;5.00;;;12.70;99.90;;;;;;5050007;28;20475;-82
2021/10/02 03:43:07;;;;;;;5.00;4.60;;;12.70;99.90;;;;;;5049461;28;20217;-83
2021/10/02 03:45:38;;;;;;;6.47;5.70;;;12.70;99.90;;;;;;5047215;28;20217;-82
2021/10/02 03:48:04;;;;;;;5.83;4.40;;;12.70;99.90;;;;;;5050105;28;20356;-82
2021/10/02 03:50:31;;;;;;;5.93;5.43;;;12.70;99.90;;;;;;5047079;28;20445;-82
2021/10/02 03:52:57;;;;;;;7.63;5.10;;;12.70;99.90;;;;;;5047660;28;20437;-82
2021/10/02 03:55:22;;;;;;;7.53;5.33;;;12.70;99.90;;;;;;5049322;28;20460;-82
2021/10/02 03:57:48;;;;;;;7.80;6.23;;;12.60;99.90;;;;;;5054202;28;20443;-82
2021/10/02 04:00:14;;;;;;;6.13;5.30;;;12.60;99.90;;;;;;5046842;28;20772;-82
2021/10/02 04:02:41;;;;;;;7.80;5.77;;;12.70;99.90;;;;;;5042014;28;20182;-82
2021/10/02 04:05:08;;;;;;;6.83;6.13;;;12.70;99.90;;;;;;5042903;28;20541;-82
2021/10/02 04:07:33;;;;;;;8.23;6.20;;;12.70;99.90;;;;;;5043486;28;20481;-82
2021/10/02 04:10:00;;;;;;;10.47;6.43;;;12.70;99.90;;;;;;5044611;28;20956;-82
2021/10/02 04:12:25;;;;;;;7.40;5.17;;;12.60;99.90;;;;;;5043960;28;20817;-82
2021/10/02 04:14:52;;;;;;;7.97;5.43;;;12.70;99.90;;;;;;5045822;28;20449;-82
2021/10/02 04:17:18;;;;;;;5.67;5.07;;;12.60;99.90;;;;;;5045449;28;20744;-82
2021/10/02 04:19:43;;;;;;;6.50;5.80;;;12.60;99.90;;;;;;5045059;28;20539;-82
2021/10/02 04:22:10;;;;;;;5.67;4.93;;;12.60;99.90;;;;;;5039247;28;20178;-82
2021/10/02 04:24:36;;;;;;;4.73;4.33;;;12.70;99.90;;;;;;5042099;28;20843;-82
2021/10/02 04:27:03;;;;;;;6.80;6.10;;;12.70;99.90;;;;;;5039424;28;20637;-82
2021/10/02 04:29:28;;;;;;;5.90;4.07;;;12.70;99.90;;;;;;5049898;28;20436;-82
2021/10/02 04:31:55;;;;;;;5.20;4.80;;;12.70;99.90;;;;;;5037475;28;20874;-82
2021/10/02 04:34:20;;;;;;;4.70;4.30;;;12.70;99.90;;;;;;5039936;28;20546;-82
2021/10/02 04:36:46;;;;;;;6.37;5.77;;;12.70;99.90;;;;;;5041715;28;20464;-82
2021/10/02 04:39:12;;;;;;;6.50;5.90;;;12.70;99.90;;;;;;5045569;28;20197;-82
2021/10/02 04:41:38;;;;;;;6.40;4.97;;;12.70;99.90;;;;;;5043813;28;20776;-82
2021/10/02 04:44:04;;;;;;;6.07;4.87;;;12.60;99.90;;;;;;5042475;28;20441;-82
2021/10/02 04:46:29;;;;;;;7.83;5.20;;;12.70;99.90;;;;;;5043717;28;20854;-82
2021/10/02 04:48:55;;;;;;;7.97;4.57;;;12.70;99.90;;;;;;5044440;28;20202;-82
2021/10/02 04:51:20;;;;;;;6.40;5.07;;;12.60;99.90;;;;;;5045128;28;20230;-82
2021/10/02 04:53:46;;;;;;;6.97;4.10;;;12.70;99.90;;;;;;5044063;28;20289;-82
2021/10/02 04:56:17;;;;;;;4.73;4.30;;;12.70;99.90;;;;;;5034784;28;20210;-82
2021/10/02 04:58:43;;;;;;;6.63;4.10;;;12.80;99.90;;;;;;5042464;28;20194;-82
2021/10/02 05:01:10;;;;;;;5.93;3.83;;;12.70;99.90;;;;;;5041526;28;20448;-82
2021/10/02 05:03:39;;;;;;;4.97;4.50;;;12.70;99.90;;;;;;5039541;28;21056;-82
2021/10/02 05:06:06;;;;;;;5.67;3.90;;;12.70;99.90;;;;;;5043742;28;20452;-82
2021/10/02 05:08:32;;;;;;;5.87;4.27;;;12.70;99.90;;;;;;5040202;28;20485;-82
2021/10/02 05:10:58;;;;;;;6.03;3.90;;;12.70;99.90;;;;;;5043136;28;20454;-82
2021/10/02 05:13:23;;;;;;;5.10;3.70;;;12.70;99.90;;;;;;5038967;28;20458;-81
2021/10/02 05:15:49;;;;;;;4.93;4.03;;;12.70;99.90;;;;;;5041254;28;20442;-82
2021/10/02 05:18:15;;;;;;;4.93;3.73;;;12.70;99.90;;;;;;5044671;28;20191;-82
2021/10/02 05:20:41;;;;;;;3.93;3.37;;;12.70;99.90;;;;;;5044581;28;20248;-82
2021/10/02 05:23:07;;;;;;;3.97;3.67;;;12.70;99.90;;;;;;5047973;28;20913;-81
2021/10/02 05:25:32;;;;;;;4.10;3.40;;;12.70;99.90;;;;;;5043791;28;20295;-82
2021/10/02 05:27:59;;;;;;;4.97;4.00;;;12.70;99.90;;;;;;5042809;28;20253;-82
2021/10/02 05:30:24;;;;;;;7.20;3.80;;;12.70;99.90;;;;;;5042472;28;20481;-82
2021/10/02 05:32:50;;;;;;;5.70;3.60;;;12.70;99.90;;;;;;5043947;28;20626;-82
2021/10/02 05:35:16;;;;;;;6.23;3.73;;;12.70;99.90;;;;;;5042425;28;20183;-82
2021/10/02 05:37:42;;;;;;;3.97;3.50;;;12.60;99.90;;;;;;5041641;28;20198;-82
2021/10/02 05:40:08;;;;;;;4.50;4.10;;;12.70;99.90;;;;;;5042682;28;20199;-82
2021/10/02 05:42:33;;;;;;;4.57;4.17;;;12.60;99.90;;;;;;5041861;28;20226;-83
2021/10/02 05:44:59;;;;;;;5.00;4.60;;;12.60;99.90;;;;;;5039515;28;20537;-82
2021/10/02 05:47:25;;;;;;;5.57;5.07;;;12.60;99.90;;;;;;5036731;28;20302;-83
2021/10/02 05:49:50;;;;;;;4.50;4.10;;;12.60;99.90;;;;;;5033867;28;20179;-82
2021/10/02 05:52:16;;;;;;;7.93;4.33;;;12.60;99.90;;;;;;5037264;28;20738;-83
2021/10/02 05:54:42;;;;;;;5.97;5.00;;;12.70;99.90;;;;;;5039482;28;20243;-83
2021/10/02 05:57:08;;;;;;;5.63;5.10;;;12.60;99.90;;;;;;5039108;28;22025;-83
2021/10/02 05:59:34;;;;;;;4.93;4.40;;;12.60;99.90;;;;;;5042718;28;20278;-83
2021/10/02 06:02:00;;;;;;;5.43;5.03;;;12.70;99.90;;;;;;5042736;28;20178;-83
2021/10/02 06:04:25;;;;;;;5.97;5.20;;;12.70;99.90;;;;;;5041485;28;20261;-83
2021/10/02 06:06:51;;;;;;;8.10;4.40;;;12.70;99.90;;;;;;5038520;28;21267;-83
2021/10/02 06:09:17;;;;;;;5.40;4.53;;;12.70;99.90;;;;;;5040337;28;20182;-83
2021/10/02 06:11:43;;;;;;;4.53;4.13;;;12.70;99.90;;;;;;5038609;28;20286;-83
2021/10/02 06:14:08;;;;;;;5.93;5.43;;;12.70;99.90;;;;;;5043454;28;20441;-83
2021/10/02 06:16:38;;;;;;;5.57;4.80;;;12.60;99.90;;;;;;5040373;28;20182;-83
2021/10/02 06:19:07;;;;;;;4.43;4.10;;;12.70;99.90;;;;;;5037281;28;20191;-83
2021/10/02 06:21:33;;;;;;;4.40;4.00;;;12.70;99.90;;;;;;5042603;28;20445;-83
2021/10/02 06:24:00;;;;;;;4.93;3.70;;;12.70;99.90;;;;;;5050867;28;20460;-83
2021/10/02 06:26:31;;;;;;;8.00;4.20;;;12.70;99.90;;;;;;5050124;28;20809;-83
2021/10/02 06:28:57;;;;;;;5.37;3.67;;;12.80;99.90;;;;;;5041713;28;20465;-83
2021/10/02 06:31:23;;;;;;;4.03;3.63;;;12.70;99.90;;;;;;5042395;28;20506;-83
2021/10/02 06:33:49;;;;;;;4.20;3.30;;;12.80;99.90;;;;;;5038478;28;20485;-83
2021/10/02 06:36:16;;;;;;;3.70;3.40;;;12.80;99.90;;;;;;5043176;28;20525;-83
2021/10/02 06:38:42;;;;;;;3.50;3.03;;;12.80;99.90;;;;;;5035567;28;20198;-83
2021/10/02 06:41:08;;;;;;;3.50;3.20;;;12.80;99.90;;;;;;5036767;28;20473;-82
2021/10/02 06:43:35;;;;;;;2.80;2.60;;;12.80;99.90;;;;;;5034683;28;20511;-82
2021/10/02 06:46:01;;;;;;;3.33;2.90;;;12.80;99.90;;;;;;5033626;28;20831;-82
2021/10/02 06:48:27;;;;;;;3.30;3.00;;;12.90;99.90;;;;;;5035649;28;20905;-82
2021/10/02 06:50:52;;;;;;;2.80;2.60;;;12.90;99.90;;;;;;5042590;28;20448;-81
2021/10/02 06:53:18;;;;;;;3.43;3.13;;;13.00;99.90;;;;;;5032696;28;20187;-82
2021/10/02 06:55:44;;;;;;;3.53;3.00;;;12.90;99.90;;;;;;5032116;28;20214;-82
2021/10/02 06:58:10;;;;;;;2.63;2.43;;;12.90;99.90;;;;;;5042748;28;21222;-81
2021/10/02 07:00:36;;;;;;;2.03;1.93;;;13.00;99.90;;;;;;5034436;28;20202;-82
2021/10/02 07:03:02;;;;;;;3.20;2.47;;;12.90;99.90;;;;;;5039570;28;20481;-82
2021/10/02 07:05:28;;;;;;;2.50;2.17;;;12.90;99.90;;;;;;5034879;28;20505;-81
2021/10/02 07:07:54;;;;;;;3.60;2.67;;;13.00;99.90;;;;;;5034947;28;21421;-81
2021/10/02 07:10:21;;;;;;;3.00;2.40;;;13.00;99.90;;;;;;5032891;28;20310;-82
2021/10/02 07:12:51;;;;;;;2.93;2.40;;;13.00;99.90;;;;;;5036182;28;20174;-82
2021/10/02 07:15:17;;;;;;;1.50;1.40;;;13.00;99.90;;;;;;5026370;28;20461;-81
2021/10/02 07:17:43;;;;;;;2.27;1.80;;;13.00;99.90;;;;;;5038712;28;20819;-81
2021/10/02 07:20:10;;;;;;;2.07;1.87;;;13.00;99.90;;;;;;5034558;28;21331;-82
2021/10/02 07:22:38;;;;;;;1.93;1.77;;;13.10;99.90;;;;;;5028164;28;20187;-81
2021/10/02 07:25:05;;;;;;;2.00;1.80;;;13.00;99.90;;;;;;5034522;28;20483;-81
2021/10/02 07:27:32;;;;;;;2.33;1.43;;;13.00;99.90;;;;;;5032281;28;20531;-81
2021/10/02 07:29:57;;;;;;;1.60;1.50;;;13.10;99.90;;;;;;5031664;28;20470;-81
2021/10/02 07:32:24;;;;;;;1.80;1.47;;;13.10;99.90;;;;;;5033698;28;20449;-81
2021/10/02 07:34:53;;;;;;;2.40;1.67;;;13.20;99.90;;;;;;5036144;28;20547;-81
2021/10/02 07:37:19;;;;;;;2.77;1.30;;;13.20;99.90;;;;;;5036380;28;20457;-81
2021/10/02 07:39:45;;;;;;;1.70;1.40;;;13.20;99.90;;;;;;5046577;28;20434;-81
2021/10/02 07:42:12;;;;;;;1.33;1.23;;;13.20;99.90;;;;;;5038126;28;20482;-81
2021/10/02 07:44:41;;;;;;;3.07;1.80;;;13.30;99.90;;;;;;5033042;28;20559;-81
2021/10/02 07:47:08;;;;;;;4.90;1.70;;;13.40;99.90;;;;;;5033723;28;20480;-81
2021/10/02 07:49:35;;;;;;;1.50;1.40;;;13.40;99.90;;;;;;5038715;28;20498;-81
2021/10/02 07:52:01;;;;;;;3.00;1.43;;;13.50;99.90;;;;;;5042399;28;20481;-81
2021/10/02 07:54:27;;;;;;;1.60;1.43;;;13.50;99.90;;;;;;5044595;28;20444;-81
2021/10/02 07:56:56;;;;;;;1.83;1.30;;;13.50;99.90;;;;;;5045081;28;20477;-81
2021/10/02 07:59:22;;;;;;;2.07;1.60;;;13.50;99.90;;;;;;5044158;28;20198;-81
2021/10/02 08:01:49;;;;;;;2.13;1.53;;;13.40;99.90;;;;;;5045223;28;20791;-80
2021/10/02 08:04:15;;;;;;;1.50;1.37;;;13.50;99.90;;;;;;5041814;28;20522;-81
2021/10/02 08:06:40;;;;;;;2.10;1.30;;;13.50;99.90;;;;;;5046671;28;20476;-81
2021/10/02 08:09:06;;;;;;;2.00;1.33;;;13.50;99.90;;;;;;5048676;28;20197;-80
2021/10/02 08:11:32;;;;;;;1.93;1.50;;;13.50;99.90;;;;;;5047285;28;20194;-80
2021/10/02 08:13:58;;;;;;;2.57;1.50;;;13.60;99.90;;;;;;5046120;28;20448;-81
2021/10/02 08:16:30;;;;;;;1.70;1.40;;;13.60;99.90;;;;;;5045506;28;20487;-80
2021/10/02 08:18:58;;;;;;;2.60;1.47;;;13.70;99.90;;;;;;5044686;28;21051;-81
2021/10/02 08:21:25;;;;;;;4.20;1.53;;;13.70;99.90;;;;;;5044066;28;21029;-80
2021/10/02 08:23:52;;;;;;;2.73;1.50;;;13.70;99.90;;;;;;5046351;28;20453;-81
2021/10/02 08:26:19;;;;;;;3.10;1.33;;;13.70;99.90;;;;;;5049204;28;20579;-83
2021/10/02 08:28:50;;;;;;;2.80;1.57;;;13.70;99.90;;;;;;5045641;28;20497;-82
2021/10/02 08:31:18;;;;;;;1.60;1.23;;;13.90;99.90;;;;;;5048258;28;20469;-83
2021/10/02 08:33:44;;;;;;;1.90;1.70;;;14.00;99.90;;;;;;5043065;28;20493;-82
2021/10/02 08:36:11;;;;;;;1.97;1.70;;;14.10;99.90;;;;;;5047094;28;20647;-82
2021/10/02 08:38:37;;;;;;;1.90;1.50;;;14.00;99.90;;;;;;5043738;28;20944;-83
2021/10/02 08:41:06;;;;;;;2.10;1.70;;;14.10;99.90;;;;;;5049153;28;20913;-82
2021/10/02 08:43:33;;;;;;;2.00;1.70;;;14.20;99.90;;;;;;5046276;28;20467;-82
2021/10/02 08:46:05;;;;;;;2.40;1.70;;;14.20;99.90;;;;;;5046888;28;20457;-83
2021/10/02 08:48:32;;;;;;;3.10;1.70;;;14.20;99.90;;;;;;5045331;28;20472;-82
2021/10/02 08:51:01;;;;;;;2.27;1.47;;;14.20;99.90;;;;;;5047209;28;20436;-82
2021/10/02 08:53:29;;;;;;;3.70;1.63;;;14.30;99.90;;;;;;5060128;28;20848;-82
2021/10/02 08:55:56;;;;;;;2.27;1.70;;;14.30;99.90;;;;;;5048164;28;20476;-83
2021/10/02 08:58:23;;;;;;;2.90;1.43;;;14.40;99.90;;;;;;5047129;28;20946;-82
2021/10/02 09:00:49;;;;;;;2.33;1.43;;;14.40;99.90;;;;;;5048116;28;20464;-82
2021/10/02 09:03:16;;;;;;;2.33;1.87;;;14.40;99.90;;;;;;5045943;28;20966;-82
2021/10/02 09:05:42;;;;;;;3.07;1.70;;;14.40;99.90;;;;;;5048694;28;20445;-82
2021/10/02 09:08:07;;;;;;;3.60;1.90;;;14.30;99.90;;;;;;5049823;28;20472;-82
2021/10/02 09:10:35;;;;;;;1.70;1.40;;;14.30;99.90;;;;;;5044628;28;20297;-82
2021/10/02 09:13:01;;;;;;;1.70;1.60;;;14.30;99.90;;;;;;5045610;28;20684;-82
2021/10/02 09:15:27;;;;;;;2.23;1.60;;;14.20;99.90;;;;;;5045302;28;20874;-82
2021/10/02 09:17:53;;;;;;;2.67;1.40;;;14.30;99.90;;;;;;5047290;28;20451;-82
2021/10/02 09:20:19;;;;;;;2.00;1.80;;;14.40;99.90;;;;;;5047030;28;20971;-81
2021/10/02 09:22:59;;;;;;;2.50;1.33;;;14.30;99.90;;;;;;5044320;28;20457;-81
2021/10/02 09:25:27;;;;;;;4.00;1.30;;;14.40;99.90;;;;;;5045687;28;20464;-81
2021/10/02 09:28:14;;;;;;;2.80;1.70;;;14.50;99.90;;;;;;5050313;28;20476;-81
2021/10/02 09:30:43;;;;;;;3.30;1.93;;;14.50;99.90;;;;;;5051931;28;20483;-81
2021/10/02 09:33:22;;;;;;;3.00;1.80;;;14.50;99.90;;;;;;5048355;28;20535;-81
2021/10/02 09:35:49;;;;;;;2.43;1.60;;;14.40;99.90;;;;;;5045979;28;20511;-81
2021/10/02 09:38:19;;;;;;;3.83;1.77;;;14.40;99.90;;;;;;5048067;28;20448;-81
2021/10/02 09:40:57;;;;;;;3.43;2.00;;;14.30;99.90;;;;;;5046307;28;20433;-81
2021/10/02 09:43:24;;;;;;;3.43;2.23;;;14.30;99.90;;;;;;5044765;28;20476;-82
2021/10/02 09:45:51;;;;;;;4.27;2.23;;;14.30;99.90;;;;;;5046554;28;20449;-81
2021/10/02 09:48:31;;;;;;;3.40;2.10;;;14.30;99.90;;;;;;5041154;28;20991;-81
2021/10/02 09:51:06;;;;;;;2.07;1.87;;;14.50;99.90;;;;;;5040852;28;20448;-81
2021/10/02 09:53:39;;;;;;;3.90;1.90;;;14.50;99.90;;;;;;5046459;28;20544;-81
2021/10/02 09:56:10;;;;;;;2.57;1.83;;;14.70;99.90;;;;;;5045626;28;21019;-81
2021/10/02 09:58:37;;;;;;;2.30;1.90;;;14.70;99.90;;;;;;5042595;28;20480;-81
2021/10/02 10:01:05;;;;;;;2.30;2.00;;;14.80;99.90;;;;;;5043377;28;20495;-81
2021/10/02 10:03:46;;;;;;;2.73;2.10;;;14.70;99.90;;;;;;5044936;28;20453;-80
2021/10/02 10:06:23;;;;;;;2.17;1.77;;;14.70;99.90;;;;;;5042038;28;20459;-81
2021/10/02 10:09:09;;;;;;;3.03;2.17;;;14.70;99.90;;;;;;5038331;28;20452;-81
2021/10/02 10:11:49;;;;;;;2.93;1.90;;;14.70;99.90;;;;;;5045823;28;20768;-81
2021/10/02 10:14:35;;;;;;;2.70;1.83;;;14.80;99.90;;;;;;5045453;28;20519;-81
2021/10/02 10:17:01;;;;;;;2.00;1.80;;;14.70;99.90;;;;;;5047899;28;20678;-82
2021/10/02 10:19:31;;;;;;;2.10;1.90;;;14.80;99.90;;;;;;5043041;28;20453;-81
2021/10/02 10:22:03;;;;;;;2.80;1.80;;;14.80;99.90;;;;;;5045901;28;20456;-81
2021/10/02 10:24:28;;;;;;;2.30;2.07;;;14.70;99.90;;;;;;5046464;28;20449;-81
2021/10/02 10:26:57;;;;;;;4.87;1.93;;;14.80;99.90;;;;;;5040340;28;20485;-81
2021/10/02 10:29:41;;;;;;;3.03;1.70;;;14.90;99.90;;;;;;5044983;28;20233;-81
2021/10/02 10:32:09;;;;;;;5.43;3.07;;;15.10;99.90;;;;;;5042370;28;20444;-81
2021/10/02 10:34:40;;;;;;;1.63;1.53;;;15.10;99.90;;;;;;5042204;28;20449;-81
2021/10/02 10:37:09;;;;;;;2.00;1.30;;;15.10;99.90;;;;;;5046294;28;20809;-81
2021/10/02 10:39:35;;;;;;;1.70;1.50;;;15.10;99.90;;;;;;5045911;28;21140;-81
2021/10/02 10:42:03;;;;;;;2.70;1.73;;;15.10;99.90;;;;;;5039969;28;20480;-81
2021/10/02 10:44:29;;;;;;;2.47;1.80;;;15.10;99.90;;;;;;5040350;28;20540;-81
2021/10/02 10:46:55;;;;;;;4.17;2.17;;;15.20;99.90;;;;;;5046421;28;20469;-81
2021/10/02 10:49:23;;;;;;;2.77;2.00;;;15.20;99.90;;;;;;5043049;28;20190;-81
2021/10/02 10:51:49;;;;;;;2.57;1.80;;;15.20;99.90;;;;;;5045727;28;20186;-81
2021/10/02 10:54:17;;;;;;;2.80;1.90;;;15.20;99.90;;;;;;5040582;28;20837;-81
2021/10/02 10:56:47;;;;;;;2.73;1.90;;;15.20;99.90;;;;;;5046823;28;20471;-81
2021/10/02 10:59:18;;;;;;;2.57;1.80;;;15.20;99.90;;;;;;5044957;28;20457;-81
2021/10/02 11:01:45;;;;;;;3.30;1.60;;;15.20;99.90;;;;;;5040753;28;20986;-81
2021/10/02 11:04:30;;;;;;;4.30;2.13;;;15.30;99.90;;;;;;5046470;28;20448;-81
2021/10/02 11:06:55;;;;;;;1.63;1.30;;;15.40;99.90;;;;;;5040616;28;20512;-81
2021/10/02 11:09:35;;;;;;;1.93;1.50;;;15.30;99.90;;;;;;5046172;28;20528;-81
2021/10/02 11:12:02;;;;;;;3.23;1.73;;;15.30;99.90;;;;;;5045657;28;20261;-81
2021/10/02 11:14:46;;;;;;;2.57;1.73;;;15.40;99.90;;;;;;5043540;28;20464;-81
2021/10/02 11:17:14;;;;;;;2.60;1.80;;;15.40;99.90;;;;;;5039540;28;20436;-81
2021/10/02 11:19:43;;;;;;;2.27;1.40;;;15.50;99.90;;;;;;5042818;28;20965;-81
2021/10/02 11:23:07;;;;;;;2.47;1.40;;;15.60;99.90;;;;;;5043519;28;20464;-81
2021/10/02 11:25:34;;;;;;;2.97;1.60;;;15.70;99.90;;;;;;5001523;28;21666;-81
2021/10/02 11:28:26;;;;;;;2.67;1.53;;;15.80;99.90;;;;;;5043228;28;20850;-82
2021/10/02 11:30:54;;;;;;;2.53;1.70;;;15.90;36.30;;;;;;5037530;28;20457;-81
2021/10/02 11:33:42;;;;;;;2.30;1.50;;;16.00;86.80;;;;;;5046896;28;20996;-82
2021/10/02 11:36:30;;;;;;;2.07;1.30;;;16.00;10.20;;;;;;5039847;28;20456;-82
2021/10/02 11:39:15;;;;;;;3.63;1.30;;;16.10;29.70;;;;;;5040825;28;20661;-81
2021/10/02 11:41:50;;;;;;;1.73;1.40;;;16.10;9.50;;;;;;5042596;28;20471;-81
2021/10/02 11:44:30;;;;;;;1.97;1.47;;;16.10;1.00;;;;;;5042999;28;20444;-81
2021/10/02 11:47:29;;;;;;;2.63;1.50;;;16.00;1.00;;;;;;5039074;28;20492;-82
2021/10/02 11:50:07;;;;;;;3.13;1.70;;;16.00;1.00;;;;;;5040133;28;20440;-81
2021/10/02 11:52:54;;;;;;;2.93;2.10;;;16.00;1.00;;;;;;5040426;28;20440;-82
2021/10/02 11:55:47;;;;;;;2.90;1.37;;;16.10;1.00;;;;;;5031748;28;20460;-81
2021/10/02 11:58:13;;;;;;;4.73;1.70;;;16.10;1.00;;;;;;5045051;28;20476;-82
2021/10/02 12:00:48;;;;;;;1.83;1.30;;;16.10;1.00;;;;;;5044423;28;20453;-81
2021/10/02 12:03:23;;;;;;;2.07;1.70;;;16.20;1.00;;;;;;5043784;28;20798;-81
2021/10/02 12:05:50;;;;;;;2.30;1.30;;;16.40;1.00;;;;;;5048202;28;20956;-82
2021/10/02 12:08:17;;;;;;;1.60;1.17;;;16.50;1.00;;;;;;5044748;28;20614;-81
2021/10/02 12:10:57;;;;;;;2.07;1.00;;;16.50;1.00;;;;;;5040110;28;20445;-81
2021/10/02 12:13:31;;;;;;;2.70;1.57;;;16.40;1.00;;;;;;5039812;28;20449;-81
2021/10/02 12:16:03;;;;;;;1.40;1.00;;;16.40;1.00;;;;;;5042381;28;20456;-81
2021/10/02 12:18:58;;;;;;;1.60;1.20;;;16.30;1.00;;;;;;5043590;28;20443;-81
2021/10/02 12:21:23;;;;;;;2.53;1.60;;;16.20;1.00;;;;;;5041947;28;20502;-81
2021/10/02 12:24:03;;;;;;;2.60;1.00;;;16.20;1.00;;;;;;5038197;28;21206;-81
2021/10/02 12:26:32;;;;;;;1.90;1.40;;;16.20;1.00;;;;;;5042549;28;20236;-81
2021/10/02 12:29:03;;;;;;;1.63;1.10;;;16.20;1.00;;;;;;5039878;28;20891;-81
2021/10/02 12:31:45;;;;;;;1.87;1.20;;;16.20;1.00;;;;;;5042163;28;20541;-81
2021/10/02 12:34:17;;;;;;;2.23;1.20;;;16.20;1.00;;;;;;5041137;28;20471;-81
2021/10/02 12:36:48;;;;;;;4.33;1.10;;;16.20;1.00;;;;;;5042230;28;20457;-80
2021/10/02 12:39:14;;;;;;;3.30;1.27;;;16.20;1.00;;;;;;5046388;28;21033;-81
2021/10/02 12:41:42;;;;;;;1.70;1.00;;;16.20;1.00;;;;;;5046938;28;21036;-81
2021/10/02 12:44:16;;;;;;;2.13;1.00;;;16.20;1.00;;;;;;5044926;28;21151;-81
2021/10/02 12:46:42;;;;;;;1.60;0.97;;;16.30;1.00;;;;;;5051161;28;20870;-82
2021/10/02 12:49:10;;;;;;;2.20;1.30;;;16.30;1.00;;;;;;5050534;28;20535;-81
2021/10/02 12:51:36;;;;;;;2.23;1.27;;;16.30;1.00;;;;;;5050279;28;20444;-81
2021/10/02 12:54:01;;;;;;;5.73;1.40;;;16.20;1.00;;;;;;5050350;28;20449;-82
2021/10/02 12:56:27;;;;;;;1.97;1.30;;;16.20;1.00;;;;;;5051359;28;20191;-81
2021/10/02 12:58:52;;;;;;;1.23;0.90;;;16.30;1.00;;;;;;5051376;28;20178;-81
2021/10/02 13:01:18;;;;;;;1.80;1.10;;;16.30;1.00;;;;;;5053416;28;20239;-81
2021/10/02 13:03:44;;;;;;;2.17;1.10;;;16.20;1.00;;;;;;5053986;28;20230;-81
2021/10/02 13:06:10;;;;;;;1.70;1.03;;;16.40;1.00;;;;;;5044043;28;21035;-82
2021/10/02 13:08:35;;;;;;;1.53;1.20;;;16.60;1.00;;;;;;5055620;28;20222;-81
2021/10/02 13:11:02;;;;;;;2.50;1.40;;;16.60;1.00;;;;;;5049849;28;20210;-81
2021/10/02 13:13:28;;;;;;;1.37;1.00;;;16.60;1.00;;;;;;5051841;28;20460;-82
2021/10/02 13:15:55;;;;;;;1.50;1.10;;;16.40;1.00;;;;;;5049567;28;20455;-81
2021/10/02 13:18:23;;;;;;;2.30;1.30;;;16.30;1.00;;;;;;5047257;28;20229;-81
2021/10/02 13:21:06;;;;;;;1.53;1.33;;;16.40;1.00;;;;;;5047512;28;20502;-81
2021/10/02 13:23:34;;;;;;;2.60;1.13;;;16.40;1.00;;;;;;5048227;28;20444;-82
2021/10/02 13:26:03;;;;;;;2.03;1.50;;;16.30;1.00;;;;;;5050676;28;20532;-81
2021/10/02 13:28:33;;;;;;;1.30;1.17;;;16.30;1.00;;;;;;5052217;28;20530;-81
2021/10/02 13:31:05;;;;;;;3.27;1.30;;;16.20;1.00;;;;;;5050903;28;20857;-81
2021/10/02 13:33:37;;;;;;;1.80;1.20;;;16.20;1.00;;;;;;5044171;28;20442;-81
2021/10/02 13:36:04;;;;;;;1.67;1.30;;;16.30;1.00;;;;;;5046214;28;20861;-81
2021/10/02 13:38:39;;;;;;;6.40;1.10;;;16.20;1.00;;;;;;5051904;28;20634;-81
2021/10/02 13:41:07;;;;;;;1.60;1.27;;;16.20;1.00;;;;;;5053808;28;20456;-82
2021/10/02 13:43:33;;;;;;;1.40;1.10;;;16.30;1.00;;;;;;5053798;28;20468;-81
2021/10/02 13:45:59;;;;;;;3.40;1.53;;;16.20;1.00;;;;;;5052450;28;20449;-81
2021/10/02 13:48:27;;;;;;;1.50;1.27;;;16.30;1.00;;;;;;5051251;28;21174;-81
2021/10/02 13:50:55;;;;;;;1.90;1.10;;;16.30;1.00;;;;;;5050691;28;20459;-81